Terminal Aerodrome Forecast
Issued by NWS Sioux Falls, SD

Home | Current Version | Previous Version | Graphics & Text | Print | Product List | Glossary On
Versions: 1 2 3 4 5 6 7 8 9 10 11 12 13 14 15 16 17 18 19 20
000
FTUS43 KFSD 291731
TAFFSD
TAF
KFSD 291731Z 2918/3018 33015G23KT P6SM OVC025
     FM292200 33015KT P6SM BKN025
     FM300000 34008KT P6SM BKN025
     FM300300 VRB05KT P6SM SCT020
     FM301400 19010KT P6SM SCT025=

USA.gov is the U.S. government's official web portal to all federal, state and local government web resources and services.